Time;durP1;ratioP1;P1;durP2;ratioP2;P2;SDS_P1;SDS_P2;PMS_P1;PMS_P2;Temp;Humidity;BMP_temperature;BMP_pressure;BME280_temperature;BME280_humidity;BME280_pressure;Samples;Min_cycle;Max_cycle;Signal;HPM_P1;HPM_P2
2023/12/25 00:01:38;;;;;;;0.50;0.50;;;;;;;12.33;62.11;94387.38;4986234;28;20585;-87
2023/12/25 00:04:04;;;;;;;0.80;0.40;;;;;;;12.35;62.14;94410.41;4991904;28;20224;-88
2023/12/25 00:06:31;;;;;;;1.20;0.50;;;;;;;12.35;61.57;94387.94;4980457;28;20326;-87
2023/12/25 00:09:01;;;;;;;0.40;0.40;;;;;;;12.37;61.45;94359.34;4990966;28;20203;-87
2023/12/25 00:11:28;;;;;;;0.50;0.50;;;;;;;12.38;61.36;94353.19;4991394;28;20203;-87
2023/12/25 00:13:55;;;;;;;0.60;0.60;;;;;;;12.33;60.86;94322.06;4990945;28;20590;-87
2023/12/25 00:16:26;;;;;;;0.40;0.40;;;;;;;12.37;60.69;94316.25;4991220;28;20203;-87
2023/12/25 00:18:52;;;;;;;0.60;0.60;;;;;;;12.39;60.80;94318.63;4986108;28;20666;-88
2023/12/25 00:21:30;;;;;;;1.10;0.50;;;;;;;12.34;60.55;94306.38;4991352;28;20210;-87
2023/12/25 00:23:56;;;;;;;0.40;0.40;;;;;;;12.37;60.58;94310.31;4990188;28;20779;-88
2023/12/25 00:26:24;;;;;;;0.50;0.50;;;;;;;12.37;60.07;94276.75;4990553;28;20214;-88
2023/12/25 00:28:51;;;;;;;0.43;0.43;;;;;;;12.38;59.84;94266.22;4989905;28;20700;-88
2023/12/25 00:31:17;;;;;;;0.50;0.50;;;;;;;12.33;59.83;94262.72;4990108;28;20203;-87
2023/12/25 00:33:49;;;;;;;0.50;0.50;;;;;;;12.35;59.41;94227.94;4988723;28;20195;-88
2023/12/25 00:36:15;;;;;;;0.50;0.50;;;;;;;12.40;59.18;94235.03;4990438;28;20616;-87
2023/12/25 00:38:42;;;;;;;0.40;0.40;;;;;;;12.38;59.27;94214.59;4990646;28;20821;-88
2023/12/25 00:41:08;;;;;;;0.80;0.70;;;;;;;12.38;58.70;94183.63;4990176;28;20231;-88
2023/12/25 00:43:36;;;;;;;0.50;0.50;;;;;;;12.35;58.32;94186.66;4990545;28;20231;-87
2023/12/25 00:46:05;;;;;;;0.43;0.43;;;;;;;12.36;58.35;94156.47;4990381;28;20200;-87
2023/12/25 00:48:34;;;;;;;0.60;0.47;;;;;;;12.39;57.99;94141.31;4990799;28;20204;-88
2023/12/25 00:51:01;;;;;;;0.50;0.50;;;;;;;12.45;57.68;94140.44;4984343;28;20199;-87
2023/12/25 00:53:27;;;;;;;0.50;0.50;;;;;;;12.45;57.34;94124.16;4990505;28;20204;-87
2023/12/25 00:55:54;;;;;;;0.50;0.50;;;;;;;12.44;57.20;94094.19;4989941;28;20246;-87
2023/12/25 00:58:20;;;;;;;0.50;0.50;;;;;;;12.45;56.92;94085.44;4991444;28;20211;-87
2023/12/25 01:00:48;;;;;;;0.70;0.47;;;;;;;12.47;56.93;94085.22;5001225;28;20216;-87
2023/12/25 01:03:21;;;;;;;0.50;0.50;;;;;;;12.44;56.81;94070.97;4990279;28;20230;-88
2023/12/25 01:05:48;;;;;;;0.47;0.47;;;;;;;12.49;56.70;94080.63;4986092;28;20240;-87
2023/12/25 01:08:14;;;;;;;0.50;0.50;;;;;;;12.48;56.43;94074.69;4988694;28;20214;-87
2023/12/25 01:10:41;;;;;;;0.93;0.50;;;;;;;12.45;56.10;94083.66;4989840;28;20203;-87
2023/12/25 01:13:07;;;;;;;0.50;0.50;;;;;;;12.48;56.09;94081.63;4989586;28;20298;-87
2023/12/25 01:15:34;;;;;;;0.97;0.50;;;;;;;12.44;56.05;94050.31;4989925;28;20220;-88
2023/12/25 01:18:19;;;;;;;1.17;0.60;;;;;;;12.44;55.35;94045.16;4989704;28;20195;-87
2023/12/25 01:20:46;;;;;;;1.27;0.60;;;;;;;12.47;55.67;94067.16;4988956;28;20206;-87
2023/12/25 01:23:13;;;;;;;0.50;0.50;;;;;;;12.44;55.28;94061.44;4984132;28;20199;-87
2023/12/25 01:25:48;;;;;;;0.40;0.40;;;;;;;12.43;54.92;94044.38;4989548;28;20250;-87
2023/12/25 01:28:14;;;;;;;0.40;0.40;;;;;;;12.41;54.87;94045.59;4990262;28;20634;-87
2023/12/25 01:30:41;;;;;;;0.80;0.50;;;;;;;12.40;55.21;94064.69;4989048;28;20791;-88
2023/12/25 01:33:07;;;;;;;0.60;0.60;;;;;;;12.42;55.06;94052.34;4989416;28;20768;-88
2023/12/25 01:35:35;;;;;;;0.50;0.50;;;;;;;12.43;54.98;94038.44;4989653;28;20693;-88
2023/12/25 01:38:03;;;;;;;0.50;0.50;;;;;;;12.41;54.69;94015.41;4987824;28;20207;-88
2023/12/25 01:40:32;;;;;;;0.50;0.50;;;;;;;12.38;54.41;93997.81;4988478;28;20234;-87
2023/12/25 01:42:58;;;;;;;0.30;0.30;;;;;;;12.35;54.11;93959.53;4989532;28;20222;-88
2023/12/25 01:45:25;;;;;;;0.50;0.50;;;;;;;12.35;53.47;93956.19;4988756;28;20859;-88
2023/12/25 01:47:51;;;;;;;1.17;0.50;;;;;;;12.32;53.76;93969.53;4988914;28;20669;-88
2023/12/25 01:50:18;;;;;;;0.50;0.50;;;;;;;12.29;53.38;93951.94;4988682;28;20203;-87
2023/12/25 01:52:46;;;;;;;1.43;0.50;;;;;;;12.31;52.85;93890.56;4989425;28;20689;-88
2023/12/25 01:55:17;;;;;;;0.70;0.70;;;;;;;12.34;52.49;93872.03;4986849;28;20216;-87
2023/12/25 01:57:43;;;;;;;0.60;0.60;;;;;;;12.33;52.17;93860.91;4989730;28;20211;-88
2023/12/25 02:00:10;;;;;;;0.50;0.50;;;;;;;12.32;51.86;93846.44;4988568;28;20200;-88
2023/12/25 02:02:37;;;;;;;0.53;0.53;;;;;;;12.34;51.28;93828.16;4988913;28;20210;-88
2023/12/25 02:05:04;;;;;;;0.53;0.53;;;;;;;12.32;51.39;93823.22;4989031;28;20239;-88
2023/12/25 02:07:30;;;;;;;0.50;0.50;;;;;;;12.37;51.10;93809.63;4989373;28;20208;-88
2023/12/25 02:10:05;;;;;;;1.60;0.50;;;;;;;12.34;50.93;93865.06;4988247;28;20207;-87
2023/12/25 02:12:32;;;;;;;0.60;0.60;;;;;;;12.39;50.73;93895.34;4986159;28;20265;-88
2023/12/25 02:14:59;;;;;;;0.50;0.50;;;;;;;12.37;50.38;93869.78;4988500;28;20299;-88
2023/12/25 02:17:26;;;;;;;0.57;0.57;;;;;;;12.35;50.58;93887.28;4988744;28;20805;-88
2023/12/25 02:19:52;;;;;;;0.50;0.50;;;;;;;12.37;50.35;93887.06;4988715;28;20759;-88
2023/12/25 02:22:19;;;;;;;0.50;0.50;;;;;;;12.39;50.53;93885.03;4989087;28;20210;-87
2023/12/25 02:24:56;;;;;;;0.67;0.67;;;;;;;12.41;50.50;93894.13;4988247;28;20232;-88
2023/12/25 02:27:24;;;;;;;0.50;0.50;;;;;;;12.39;50.40;93896.13;4987165;28;20227;-88
2023/12/25 02:29:51;;;;;;;0.50;0.50;;;;;;;12.39;50.36;93903.88;4987781;28;20218;-88
2023/12/25 02:32:17;;;;;;;0.50;0.50;;;;;;;12.42;50.68;93916.34;4989090;28;20214;-88
2023/12/25 02:34:54;;;;;;;;;;;;;;;;;;;;;
2023/12/25 02:37:21;;;;;;;0.60;0.60;;;;;;;12.43;50.77;93922.28;4988280;28;20203;-88
2023/12/25 02:39:47;;;;;;;0.53;0.53;;;;;;;12.44;50.82;93932.38;4988314;28;20218;-88
2023/12/25 02:42:14;;;;;;;0.40;0.40;;;;;;;12.43;50.83;93937.78;4988347;28;20688;-88
2023/12/25 02:44:41;;;;;;;0.50;0.50;;;;;;;12.40;50.75;93940.81;4987335;28;20615;-88
2023/12/25 02:47:16;;;;;;;0.60;0.60;;;;;;;12.39;50.87;93940.00;4989082;28;20215;-88
2023/12/25 02:49:42;;;;;;;0.40;0.40;;;;;;;12.39;50.94;93952.91;4988483;28;20199;-88
2023/12/25 02:52:08;;;;;;;0.50;0.50;;;;;;;12.37;50.82;93944.63;4988195;28;20211;-87
2023/12/25 02:54:35;;;;;;;0.40;0.40;;;;;;;12.33;50.94;93940.91;4988617;28;20246;-88
2023/12/25 02:57:01;;;;;;;0.50;0.50;;;;;;;12.34;50.57;93929.59;4988883;28;20203;-87
2023/12/25 02:59:28;;;;;;;0.67;0.50;;;;;;;12.35;50.50;93923.41;4987264;28;20216;-88
2023/12/25 03:02:05;;;;;;;0.67;0.60;;;;;;;12.38;50.74;93924.75;4988642;28;20207;-87
2023/12/25 03:04:31;;;;;;;0.50;0.50;;;;;;;12.35;50.67;93926.00;4988359;28;20234;-88
2023/12/25 03:06:58;;;;;;;0.70;0.57;;;;;;;12.34;50.53;93919.25;4988164;28;20212;-88
2023/12/25 03:09:24;;;;;;;0.50;0.50;;;;;;;12.35;50.15;93909.72;4988388;28;20210;-88
2023/12/25 03:11:51;;;;;;;0.40;0.40;;;;;;;12.32;50.31;93910.16;4988528;28;20648;-88
2023/12/25 03:14:21;;;;;;;0.50;0.50;;;;;;;12.33;50.11;93894.47;4990100;28;20709;-87
2023/12/25 03:16:47;;;;;;;0.40;0.40;;;;;;;12.35;50.08;93873.59;4990634;28;20204;-88
2023/12/25 03:19:15;;;;;;;0.57;0.57;;;;;;;12.36;50.04;93870.00;4992161;28;20207;-88
2023/12/25 03:21:42;;;;;;;0.50;0.50;;;;;;;12.36;49.83;93878.53;4992556;28;20220;-89
2023/12/25 03:24:08;;;;;;;0.50;0.50;;;;;;;12.34;49.90;93890.88;4992409;28;20227;-88
2023/12/25 03:26:35;;;;;;;0.40;0.40;;;;;;;12.34;49.95;93883.13;4992231;28;20214;-88
2023/12/25 03:29:01;;;;;;;0.50;0.50;;;;;;;12.35;49.62;93878.75;4991116;28;20218;-88
2023/12/25 03:31:35;;;;;;;0.50;0.50;;;;;;;12.35;49.83;93868.44;4990352;28;20242;-88
2023/12/25 03:34:02;;;;;;;0.43;0.43;;;;;;;12.34;49.45;93865.06;4991542;28;20227;-88
2023/12/25 03:36:29;;;;;;;0.40;0.40;;;;;;;12.37;49.63;93874.16;4997289;28;20207;-88
2023/12/25 03:38:56;;;;;;;0.50;0.50;;;;;;;12.37;49.32;93859.44;4999130;28;20211;-88
2023/12/25 03:41:22;;;;;;;0.50;0.50;;;;;;;12.34;49.14;93846.22;4999266;28;20214;-88
2023/12/25 03:43:55;;;;;;;0.57;0.57;;;;;;;12.34;49.34;93830.75;5000493;28;20298;-88
2023/12/25 03:46:21;;;;;;;0.50;0.50;;;;;;;12.37;49.30;93856.09;5001030;28;20690;-88
2023/12/25 03:48:50;;;;;;;0.40;0.40;;;;;;;12.38;49.25;93853.28;4998898;28;20203;-88
2023/12/25 03:51:16;;;;;;;0.40;0.40;;;;;;;12.34;49.00;93848.78;4979868;28;20216;-88
2023/12/25 03:53:44;;;;;;;0.50;0.50;;;;;;;12.36;49.40;93859.69;4980783;28;20208;-88
2023/12/25 03:56:11;;;;;;;1.03;0.50;;;;;;;12.39;49.42;93879.88;5007415;28;20203;-88
2023/12/25 03:58:43;;;;;;;0.50;0.50;;;;;;;12.36;49.55;93867.41;5019456;28;20207;-88
2023/12/25 04:01:09;;;;;;;0.57;0.50;;;;;;;12.41;49.58;93895.91;5012315;28;20237;-88
2023/12/25 04:03:36;;;;;;;0.50;0.50;;;;;;;12.40;49.67;93896.94;5004687;28;20206;-88
2023/12/25 04:06:03;;;;;;;1.20;0.60;;;;;;;12.39;49.58;93901.31;4992144;28;20231;-88
2023/12/25 04:08:29;;;;;;;0.43;0.43;;;;;;;12.36;49.90;93906.91;4992215;28;20203;-88
2023/12/25 04:11:17;;;;;;;1.47;0.60;;;;;;;12.34;49.61;93903.00;4991301;28;20200;-88
2023/12/25 04:13:44;;;;;;;0.60;0.60;;;;;;;12.29;50.00;93903.69;4991901;28;20207;-88
2023/12/25 04:16:27;;;;;;;0.50;0.50;;;;;;;12.31;50.04;93914.56;4991612;28;20214;-87
2023/12/25 04:18:55;;;;;;;0.50;0.50;;;;;;;12.31;49.84;93893.94;4992171;28;20208;-87
2023/12/25 04:21:25;;;;;;;0.50;0.50;;;;;;;12.27;49.67;93877.34;4989392;28;20215;-87
2023/12/25 04:23:53;;;;;;;0.50;0.50;;;;;;;12.26;49.55;93882.72;4991392;28;20207;-88
2023/12/25 04:26:27;;;;;;;0.60;0.60;;;;;;;12.29;49.60;93865.00;4991375;28;20204;-88
2023/12/25 04:28:54;;;;;;;0.57;0.57;;;;;;;12.31;49.45;93867.34;4990433;28;20183;-88
2023/12/25 04:31:21;;;;;;;0.60;0.60;;;;;;;12.31;49.37;93860.38;4991407;28;20207;-88
2023/12/25 04:33:47;;;;;;;0.50;0.50;;;;;;;12.30;49.57;93865.78;4991355;28;20204;-88
2023/12/25 04:36:17;;;;;;;0.60;0.60;;;;;;;12.25;49.43;93869.03;4988392;28;20192;-87
2023/12/25 04:38:52;;;;;;;0.60;0.60;;;;;;;12.27;49.53;93873.97;4991093;28;20211;-88
2023/12/25 04:41:23;;;;;;;0.70;0.70;;;;;;;12.25;49.31;93865.66;4990605;28;20198;-88
2023/12/25 04:43:50;;;;;;;0.63;0.57;;;;;;;12.29;49.32;93864.22;4990798;28;20207;-87
2023/12/25 04:46:17;;;;;;;0.47;0.47;;;;;;;12.32;49.46;93869.66;4990963;28;20227;-88
2023/12/25 04:48:43;;;;;;;2.00;0.50;;;;;;;12.29;49.41;93859.03;4990648;28;20211;-87
2023/12/25 04:51:16;;;;;;;1.27;0.50;;;;;;;12.29;49.54;93880.47;4990098;28;20218;-88
2023/12/25 04:53:42;;;;;;;0.60;0.50;;;;;;;12.29;49.54;93880.47;4985980;28;20203;-87
2023/12/25 04:56:10;;;;;;;0.40;0.40;;;;;;;12.24;49.65;93877.00;5002068;28;20210;-88
2023/12/25 04:58:38;;;;;;;1.63;0.57;;;;;;;12.24;49.57;93895.84;5010350;28;20202;-87
2023/12/25 05:01:06;;;;;;;0.50;0.50;;;;;;;12.30;50.05;93899.31;5009809;28;20207;-88
2023/12/25 05:03:35;;;;;;;0.80;0.70;;;;;;;12.24;50.09;93895.06;5003084;28;20203;-87
2023/12/25 05:06:01;;;;;;;0.50;0.50;;;;;;;12.23;49.89;93901.22;4989899;28;20223;-88
2023/12/25 05:08:27;;;;;;;0.60;0.50;;;;;;;12.24;49.77;93913.91;4989386;28;20203;-88
2023/12/25 05:10:54;;;;;;;0.80;0.60;;;;;;;12.27;49.86;93905.72;4971093;28;20212;-88
2023/12/25 05:13:20;;;;;;;0.67;0.60;;;;;;;12.26;49.97;93901.56;4971161;28;20208;-87
2023/12/25 05:15:48;;;;;;;0.50;0.50;;;;;;;12.26;49.97;93924.78;4970960;28;20223;-88
2023/12/25 05:18:15;;;;;;;0.67;0.50;;;;;;;12.28;49.99;93925.34;4970837;28;20227;-87
2023/12/25 05:20:49;;;;;;;0.80;0.50;;;;;;;12.28;49.78;93925.34;4971360;28;20214;-88
2023/12/25 05:23:16;;;;;;;0.60;0.60;;;;;;;12.32;50.30;93936.75;4990479;28;20245;-88
2023/12/25 05:25:43;;;;;;;1.53;0.57;;;;;;;12.33;50.04;93942.72;4987981;28;20226;-88
2023/12/25 05:28:09;;;;;;;0.67;0.53;;;;;;;12.26;50.16;93973.03;4990218;28;20411;-89
2023/12/25 05:30:36;;;;;;;1.23;0.50;;;;;;;12.22;50.36;93964.94;4988755;28;20632;-88
2023/12/25 05:33:11;;;;;;;0.70;0.70;;;;;;;12.28;50.77;93989.06;4989858;28;20290;-88
2023/12/25 05:35:38;;;;;;;0.60;0.60;;;;;;;12.24;51.10;94004.22;4989443;28;20235;-88
2023/12/25 05:38:04;;;;;;;0.73;0.50;;;;;;;12.23;51.12;94015.53;4989081;28;20206;-88
2023/12/25 05:40:31;;;;;;;2.73;0.53;;;;;;;12.24;51.45;94042.91;4987605;28;20203;-88
2023/12/25 05:42:57;;;;;;;0.80;0.60;;;;;;;12.19;52.08;94072.97;4989524;28;20214;-89
2023/12/25 05:45:24;;;;;;;1.80;0.60;;;;;;;12.29;52.33;94099.03;4989215;28;20231;-88
2023/12/25 05:47:56;;;;;;;1.50;0.60;;;;;;;12.25;52.38;94109.00;4989640;28;20204;-88
2023/12/25 05:50:24;;;;;;;0.60;0.60;;;;;;;12.26;52.53;94126.06;4989413;28;20207;-88
2023/12/25 05:52:51;;;;;;;1.20;0.53;;;;;;;12.23;52.54;94130.88;4989571;28;20203;-88
2023/12/25 05:55:17;;;;;;;1.57;0.70;;;;;;;12.17;53.07;94144.66;4994420;28;20632;-88
2023/12/25 05:57:44;;;;;;;0.70;0.40;;;;;;;12.18;53.03;94153.97;4992060;28;20551;-88
2023/12/25 06:00:11;;;;;;;0.50;0.50;;;;;;;12.19;53.18;94146.00;4988870;28;20568;-88
2023/12/25 06:02:41;;;;;;;0.60;0.60;;;;;;;12.19;52.92;94148.59;4985476;28;20666;-88
2023/12/25 06:05:08;;;;;;;1.43;0.60;;;;;;;12.18;52.79;94149.59;4982236;28;20234;-88
2023/12/25 06:07:36;;;;;;;0.40;0.40;;;;;;;12.16;52.75;94149.00;4989007;28;20203;-88
2023/12/25 06:10:03;;;;;;;0.57;0.57;;;;;;;12.19;52.78;94140.06;4988948;28;20199;-88
2023/12/25 06:12:30;;;;;;;1.00;0.53;;;;;;;12.14;52.40;94109.75;4984045;28;20689;-88
2023/12/25 06:14:57;;;;;;;0.60;0.60;;;;;;;12.13;51.80;94084.16;4988724;28;20223;-88
2023/12/25 06:17:29;;;;;;;0.50;0.50;;;;;;;12.08;51.50;94065.00;4989155;28;20238;-88
2023/12/25 06:19:55;;;;;;;0.57;0.50;;;;;;;12.08;51.42;94048.75;4988416;28;20184;-88
2023/12/25 06:22:22;;;;;;;0.67;0.67;;;;;;;12.06;51.12;94018.00;4988226;28;20676;-88
2023/12/25 06:24:50;;;;;;;0.30;0.30;;;;;;;12.05;50.66;93995.03;4988529;28;20227;-88
2023/12/25 06:27:16;;;;;;;0.47;0.47;;;;;;;12.04;50.46;93977.97;4988858;28;20218;-88
2023/12/25 06:29:52;;;;;;;0.60;0.60;;;;;;;12.07;50.02;93962.06;4986323;28;20318;-88
2023/12/25 06:32:18;;;;;;;0.50;0.50;;;;;;;11.98;49.75;93928.06;4988750;28;20210;-88
2023/12/25 06:34:45;;;;;;;0.57;0.57;;;;;;;11.93;48.91;93894.41;4988440;28;20219;-88
2023/12/25 06:37:11;;;;;;;0.60;0.40;;;;;;;11.94;49.00;93898.56;4988619;28;20195;-89
2023/12/25 06:39:37;;;;;;;0.60;0.50;;;;;;;11.96;48.89;93891.41;4988671;28;20222;-88
2023/12/25 06:42:13;;;;;;;0.60;0.60;;;;;;;11.97;48.51;93887.81;4988409;28;20677;-88
2023/12/25 06:44:39;;;;;;;0.50;0.50;;;;;;;11.93;48.42;93875.63;4985091;28;20223;-88
2023/12/25 06:47:06;;;;;;;0.50;0.50;;;;;;;11.85;48.44;93856.09;4992043;28;20253;-88
2023/12/25 06:49:32;;;;;;;0.50;0.50;;;;;;;11.87;48.47;93856.66;5019761;28;20195;-88
2023/12/25 06:51:59;;;;;;;0.60;0.60;;;;;;;11.86;48.39;93851.72;5001638;28;20919;-86
2023/12/25 06:54:25;;;;;;;0.50;0.50;;;;;;;11.87;50.49;93934.03;4999764;28;20219;-85
2023/12/25 06:56:52;;;;;;;0.70;0.70;;;;;;;11.94;49.63;93965.63;4994830;28;20230;-86
2023/12/25 06:59:22;;;;;;;0.60;0.60;;;;;;;11.96;48.72;93908.66;4993620;28;20203;-87
2023/12/25 07:01:49;;;;;;;0.60;0.60;;;;;;;11.93;48.59;93901.41;4989668;28;20192;-86
2023/12/25 07:04:15;;;;;;;0.60;0.60;;;;;;;11.86;49.19;93940.19;4989651;28;20239;-86
2023/12/25 07:06:41;;;;;;;1.63;0.70;;;;;;;11.84;48.93;93921.56;4993756;28;20241;-87
2023/12/25 07:09:10;;;;;;;1.07;0.70;;;;;;;11.82;49.21;93927.97;4993526;28;20211;-87
2023/12/25 07:11:36;;;;;;;0.90;0.60;;;;;;;11.74;49.07;93914.34;4993165;28;20269;-86
2023/12/25 07:14:02;;;;;;;0.70;0.70;;;;;;;11.71;49.31;93919.97;4991989;28;20225;-86
2023/12/25 07:16:31;;;;;;;0.60;0.60;;;;;;;11.67;49.24;93916.28;4991722;28;20210;-86
2023/12/25 07:18:57;;;;;;;0.60;0.60;;;;;;;11.63;49.00;93912.56;4989096;28;20258;-86
2023/12/25 07:21:24;;;;;;;0.60;0.60;;;;;;;11.58;48.86;93909.09;4993130;28;20309;-86
2023/12/25 07:23:50;;;;;;;0.70;0.70;;;;;;;11.59;48.92;93914.03;4990298;28;20200;-86
2023/12/25 07:26:18;;;;;;;0.80;0.63;;;;;;;11.60;49.05;93909.66;4991320;28;20764;-86
2023/12/25 07:28:50;;;;;;;0.70;0.70;;;;;;;11.65;49.04;93907.97;4990934;28;20202;-87
2023/12/25 07:31:16;;;;;;;1.00;0.80;;;;;;;11.63;49.22;93902.25;4991239;28;20261;-87
2023/12/25 07:33:44;;;;;;;0.63;0.63;;;;;;;11.61;48.91;93891.38;4986924;28;20444;-87
2023/12/25 07:36:13;;;;;;;1.43;0.87;;;;;;;11.65;49.32;93902.03;4992112;28;20210;-86
2023/12/25 07:38:41;;;;;;;0.73;0.70;;;;;;;11.62;48.89;93894.75;4991949;28;20211;-87
2023/12/25 07:41:09;;;;;;;0.97;0.70;;;;;;;11.61;48.99;93901.69;4991524;28;20224;-87
2023/12/25 07:43:37;;;;;;;0.70;0.70;;;;;;;11.66;48.85;93901.03;4992523;28;20207;-87
2023/12/25 07:46:06;;;;;;;0.70;0.70;;;;;;;11.66;48.49;93896.66;4991931;28;20228;-86
2023/12/25 07:48:32;;;;;;;0.90;0.63;;;;;;;11.68;48.73;93910.13;4992863;28;20202;-86
2023/12/25 07:51:00;;;;;;;2.43;0.80;;;;;;;11.70;48.62;93909.91;4988046;28;20243;-88
2023/12/25 07:53:27;;;;;;;0.93;0.80;;;;;;;11.71;48.73;93911.47;4996638;28;20234;-87
2023/12/25 07:55:53;;;;;;;0.87;0.87;;;;;;;11.68;48.84;93924.78;4997025;28;20211;-87
2023/12/25 07:58:26;;;;;;;0.90;0.70;;;;;;;11.68;48.72;93932.53;4996748;28;20200;-87
2023/12/25 08:00:55;;;;;;;1.50;0.60;;;;;;;11.65;48.98;93938.13;4990246;28;20853;-87
2023/12/25 08:03:22;;;;;;;1.63;0.80;;;;;;;11.61;48.84;93909.44;4991622;28;20191;-88
2023/12/25 08:06:08;;;;;;;;;;;;;;;;;;;;;
2023/12/25 08:08:36;;;;;;;0.70;0.70;;;;;;;11.98;48.11;93904.84;4992180;28;20211;-89
2023/12/25 08:11:03;;;;;;;1.17;0.70;;;;;;;12.01;47.80;93890.72;4990418;28;20199;-87
2023/12/25 08:13:30;;;;;;;1.53;0.80;;;;;;;12.11;47.58;93872.88;4990752;28;20209;-87
2023/12/25 08:16:12;;;;;;;0.70;0.70;;;;;;;12.42;46.64;93840.69;4990592;28;20227;-88
2023/12/25 08:18:39;;;;;;;0.80;0.80;;;;;;;12.71;46.02;93826.75;4990710;28;20871;-87
2023/12/25 08:21:05;;;;;;;0.97;0.83;;;;;;;12.86;45.93;93789.31;4988948;28;20665;-88
2023/12/25 08:23:32;;;;;;;0.67;0.67;;;;;;;12.95;45.48;93782.72;4990156;28;20207;-87
2023/12/25 08:26:00;;;;;;;0.70;0.70;;;;;;;12.93;45.41;93769.25;4990267;28;20222;-86
2023/12/25 08:28:37;;;;;;;0.60;0.60;;;;;;;13.10;45.42;93781.16;4990156;28;20200;-87
2023/12/25 08:31:04;;;;;;;0.70;0.70;;;;;;;13.23;44.87;93756.84;4990790;28;20218;-88
2023/12/25 08:33:31;;;;;;;0.90;0.77;;;;;;;13.21;44.88;93752.91;4990687;28;20211;-88
2023/12/25 08:35:57;;;;;;;0.70;0.70;;;;;;;13.05;44.83;93755.25;4990050;28;20258;-87
2023/12/25 08:38:23;;;;;;;1.97;0.80;;;;;;;12.85;44.95;93759.34;4988468;28;20281;-87
2023/12/25 08:40:53;;;;;;;1.00;0.90;;;;;;;12.66;44.98;93753.63;4989921;28;20223;-87
2023/12/25 08:43:21;;;;;;;0.73;0.70;;;;;;;12.42;44.35;93712.44;4990331;28;20227;-87
2023/12/25 08:45:47;;;;;;;0.77;0.77;;;;;;;12.41;44.24;93705.72;4989757;28;20224;-87
2023/12/25 08:48:14;;;;;;;0.80;0.80;;;;;;;12.36;44.17;93702.25;4989774;28;20200;-87
2023/12/25 08:50:40;;;;;;;0.70;0.70;;;;;;;12.29;43.81;93670.69;4989166;28;20199;-87
2023/12/25 08:53:08;;;;;;;0.70;0.70;;;;;;;12.32;43.56;93670.97;4999687;28;20206;-87
2023/12/25 08:55:41;;;;;;;0.80;0.80;;;;;;;12.32;43.45;93672.78;4988511;28;20227;-87
2023/12/25 08:58:08;;;;;;;0.90;0.70;;;;;;;12.27;42.87;93639.97;4980379;28;20681;-87
2023/12/25 09:00:36;;;;;;;0.70;0.70;;;;;;;12.26;42.75;93640.97;4989883;28;20196;-87
2023/12/25 09:03:02;;;;;;;0.73;0.73;;;;;;;12.18;42.96;93643.13;4989503;28;20230;-86
2023/12/25 09:05:29;;;;;;;0.80;0.80;;;;;;;12.16;42.33;93627.91;4989879;28;20236;-87
2023/12/25 09:08:09;;;;;;;0.60;0.60;;;;;;;12.18;42.36;93614.75;4989936;28;20196;-87
2023/12/25 09:10:36;;;;;;;0.90;0.90;;;;;;;12.35;42.36;93618.91;4987358;28;20208;-87
2023/12/25 09:13:03;;;;;;;0.80;0.80;;;;;;;12.36;41.81;93589.50;4988844;28;20834;-87
2023/12/25 09:15:30;;;;;;;0.87;0.87;;;;;;;12.56;41.93;93590.81;4989632;28;20227;-87
2023/12/25 09:18:09;;;;;;;0.97;0.97;;;;;;;12.72;41.23;93569.34;4989227;28;20215;-87
2023/12/25 09:20:36;;;;;;;0.83;0.83;;;;;;;12.92;40.81;93558.47;4989526;28;20192;-87
2023/12/25 09:23:05;;;;;;;0.80;0.80;;;;;;;13.10;40.36;93532.34;4993073;28;20199;-87
2023/12/25 09:25:31;;;;;;;0.83;0.80;;;;;;;13.29;39.86;93496.66;4991148;28;20709;-88
2023/12/25 09:28:00;;;;;;;0.90;0.90;;;;;;;13.49;39.45;93482.09;4988082;28;20213;-87
2023/12/25 09:30:29;;;;;;;1.20;0.80;;;;;;;13.98;38.59;93458.69;4989922;28;20195;-87
2023/12/25 09:32:55;;;;;;;0.77;0.77;;;;;;;14.32;38.11;93424.72;4989637;28;20294;-87
2023/12/25 09:35:23;;;;;;;0.87;0.70;;;;;;;14.35;37.15;93362.88;4989621;28;20231;-87
2023/12/25 09:37:49;;;;;;;0.70;0.70;;;;;;;14.20;36.93;93331.75;4989756;28;20211;-86
2023/12/25 09:40:16;;;;;;;0.73;0.70;;;;;;;14.31;36.81;93337.75;4989582;28;20207;-86
2023/12/25 09:42:45;;;;;;;0.70;0.70;;;;;;;14.15;36.43;93300.69;4987204;28;20207;-87
2023/12/25 09:45:21;;;;;;;0.77;0.77;;;;;;;14.24;36.55;93337.22;4989054;28;20245;-87
2023/12/25 09:47:50;;;;;;;0.77;0.77;;;;;;;14.44;36.01;93319.16;4989461;28;20255;-87
2023/12/25 09:50:18;;;;;;;0.73;0.73;;;;;;;14.70;35.65;93309.63;4989185;28;20207;-87
2023/12/25 09:52:47;;;;;;;0.82;0.82;;;;;;;14.65;35.64;93291.50;4989360;28;20262;-86
2023/12/25 09:55:18;;;;;;;1.77;0.98;;;;;;;14.36;35.59;93279.00;4988910;28;20723;-87
2023/12/25 09:57:46;;;;;;;0.80;0.80;;;;;;;14.07;35.81;93281.25;4989238;28;20180;-87
2023/12/25 10:00:13;;;;;;;0.60;0.60;;;;;;;13.86;35.48;93261.50;4984395;28;20225;-87
2023/12/25 10:02:45;;;;;;;0.70;0.70;;;;;;;13.57;35.43;93271.47;4989316;28;20235;-87
2023/12/25 10:05:18;;;;;;;0.75;0.60;;;;;;;13.54;35.79;93281.53;4989027;28;20225;-88
2023/12/25 10:07:46;;;;;;;1.10;0.80;;;;;;;13.54;35.90;93295.25;4989239;28;20208;-87
2023/12/25 10:10:13;;;;;;;1.50;0.80;;;;;;;13.47;35.91;93282.53;4988800;28;20968;-87
2023/12/25 10:12:43;;;;;;;0.70;0.70;;;;;;;13.37;35.75;93259.22;4989271;28;20202;-87
2023/12/25 10:15:10;;;;;;;0.60;0.60;;;;;;;13.42;35.94;93285.13;4987370;28;20227;-88
2023/12/25 10:17:42;;;;;;;0.80;0.63;;;;;;;13.46;36.04;93308.66;4988846;28;20207;-87
2023/12/25 10:20:10;;;;;;;0.57;0.57;;;;;;;13.42;35.48;93259.28;4988765;28;20214;-87
2023/12/25 10:22:38;;;;;;;0.73;0.70;;;;;;;13.42;35.36;93250.72;4988936;28;20259;-87
2023/12/25 10:25:09;;;;;;;1.13;0.70;;;;;;;13.49;35.77;93259.81;4988476;28;20649;-87
2023/12/25 10:27:50;;;;;;;0.85;0.73;;;;;;;13.44;35.04;93241.72;4988615;28;20302;-87
2023/12/25 10:30:17;;;;;;;0.60;0.60;;;;;;;13.58;35.70;93274.84;4985990;28;20562;-87
2023/12/25 10:32:47;;;;;;;0.70;0.70;;;;;;;13.59;35.46;93253.13;4989084;28;20230;-87
2023/12/25 10:35:17;;;;;;;0.60;0.60;;;;;;;13.61;34.65;93228.59;4988724;28;20305;-87
2023/12/25 10:37:50;;;;;;;1.60;0.80;;;;;;;13.67;34.40;93180.25;4988560;28;20198;-87
2023/12/25 10:40:22;;;;;;;0.70;0.70;;;;;;;13.83;34.55;93184.44;4988797;28;20215;-87
2023/12/25 10:42:50;;;;;;;0.73;0.70;;;;;;;13.91;34.15;93162.47;4989842;28;20203;-87
2023/12/25 10:45:21;;;;;;;0.65;0.65;;;;;;;13.89;33.77;93147.19;4988156;28;20250;-86
2023/12/25 10:47:49;;;;;;;0.60;0.60;;;;;;;13.84;33.66;93126.53;4983813;28;20233;-87
2023/12/25 10:50:19;;;;;;;1.75;0.90;;;;;;;13.86;33.55;93118.47;4993178;28;20579;-87
2023/12/25 10:52:48;;;;;;;0.70;0.70;;;;;;;13.92;33.49;93110.47;5008619;28;20649;-86
2023/12/25 10:55:22;;;;;;;0.65;0.50;;;;;;;14.00;33.32;93099.63;5001717;28;20225;-87
2023/12/25 10:57:57;;;;;;;0.60;0.60;;;;;;;13.97;32.96;93069.09;4988093;28;20198;-87
2023/12/25 11:00:23;;;;;;;0.75;0.68;;;;;;;13.84;32.95;93061.88;4988335;28;20198;-87
2023/12/25 11:02:55;;;;;;;0.60;0.60;;;;;;;13.73;32.70;93060.28;4986933;28;20282;-87
2023/12/25 11:05:38;;;;;;;0.70;0.70;;;;;;;13.70;32.76;93064.16;4988273;28;20432;-87
2023/12/25 11:08:05;;;;;;;0.65;0.60;;;;;;;13.85;32.85;93081.53;4988053;28;20562;-87
2023/12/25 11:10:32;;;;;;;0.80;0.80;;;;;;;13.96;32.59;93090.84;4986859;28;20208;-86
2023/12/25 11:13:00;;;;;;;1.27;0.80;;;;;;;14.07;32.60;93076.84;4988323;28;20196;-87
2023/12/25 11:15:27;;;;;;;0.60;0.60;;;;;;;14.25;32.76;93082.53;4988223;28;20698;-87
2023/12/25 11:17:55;;;;;;;0.73;0.73;;;;;;;14.40;32.33;93046.31;4988246;28;20188;-87
2023/12/25 11:20:22;;;;;;;0.60;0.60;;;;;;;14.39;31.98;93019.66;4986576;28;20567;-87
2023/12/25 11:22:48;;;;;;;1.25;0.80;;;;;;;14.31;31.99;93035.69;4987963;28;20211;-87
2023/12/25 11:25:16;;;;;;;0.70;0.70;;;;;;;14.34;32.05;93026.63;4988594;28;20234;-87
2023/12/25 11:27:44;;;;;;;0.70;0.70;;;;;;;14.39;32.47;93055.88;4989587;28;20223;-86
2023/12/25 11:30:13;;;;;;;1.00;0.88;;;;;;;14.37;32.32;93057.19;4987369;28;20585;-86
2023/12/25 11:32:45;;;;;;;0.80;0.80;;;;;;;14.42;32.49;93075.31;4988183;28;20310;-87
2023/12/25 11:35:12;;;;;;;0.90;0.90;;;;;;;14.43;32.54;93077.63;4985063;28;20223;-87
2023/12/25 11:37:49;;;;;;;1.00;0.90;;;;;;;14.59;32.85;93095.75;4987633;28;20604;-86
2023/12/25 11:40:22;;;;;;;1.20;0.80;;;;;;;14.46;31.77;93007.22;4989137;28;20203;-87
2023/12/25 11:42:49;;;;;;;0.60;0.60;;;;;;;14.49;31.37;93004.09;4991658;28;20210;-87